createdAt,value
2022-08-29T00:00:59.209Z,100.00
2022-08-29T00:03:26.069Z,100.00
2022-08-29T00:05:58.612Z,100.00
2022-08-29T00:08:25.733Z,100.00
2022-08-29T00:10:54.271Z,100.00
2022-08-29T00:13:21.337Z,100.00
2022-08-29T00:15:48.649Z,100.00
2022-08-29T00:18:16.515Z,100.00
2022-08-29T00:20:44.843Z,100.00
2022-08-29T00:23:12.193Z,100.00
2022-08-29T00:25:38.985Z,100.00
2022-08-29T00:28:05.610Z,100.00
2022-08-29T00:30:33.964Z,100.00
2022-08-29T00:33:00.600Z,100.00
2022-08-29T00:35:31.276Z,100.00
2022-08-29T00:37:59.019Z,100.00
2022-08-29T00:40:32.647Z,100.00
2022-08-29T00:42:59.304Z,100.00
2022-08-29T00:45:26.129Z,100.00
2022-08-29T00:47:57.834Z,100.00
2022-08-29T00:50:26.622Z,100.00
2022-08-29T00:52:55.286Z,100.00
2022-08-29T00:55:24.827Z,100.00
2022-08-29T00:57:59.037Z,100.00
2022-08-29T01:00:26.846Z,100.00
2022-08-29T01:02:55.215Z,100.00
2022-08-29T01:05:24.078Z,100.00
2022-08-29T01:07:52.022Z,100.00
2022-08-29T01:10:37.736Z,100.00
2022-08-29T01:13:09.299Z,100.00
2022-08-29T01:15:37.228Z,100.00
2022-08-29T01:18:06.299Z,100.00
2022-08-29T01:20:57.777Z,100.00
2022-08-29T01:23:59.022Z,100.00
2022-08-29T01:26:30.462Z,100.00
2022-08-29T01:28:57.979Z,100.00
2022-08-29T01:31:38.616Z,100.00
2022-08-29T01:34:23.675Z,100.00
2022-08-29T01:36:51.744Z,100.00
2022-08-29T01:39:20.743Z,100.00
2022-08-29T01:41:47.407Z,100.00
2022-08-29T01:44:19.467Z,100.00
2022-08-29T01:46:48.960Z,100.00
2022-08-29T01:49:17.556Z,100.00
2022-08-29T01:51:45.111Z,100.00
2022-08-29T01:54:12.885Z,100.00
2022-08-29T01:56:46.626Z,100.00
2022-08-29T01:59:15.849Z,100.00
2022-08-29T02:01:50.318Z,100.00
2022-08-29T02:04:17.908Z,100.00
2022-08-29T02:06:45.757Z,100.00
2022-08-29T02:09:12.448Z,100.00
2022-08-29T02:11:40.020Z,100.00
2022-08-29T02:14:07.863Z,100.00
2022-08-29T02:16:40.298Z,100.00
2022-08-29T02:19:07.258Z,100.00
2022-08-29T02:21:33.909Z,100.00
2022-08-29T02:24:21.273Z,100.00
2022-08-29T02:26:49.242Z,100.00
2022-08-29T02:29:15.896Z,100.00
2022-08-29T02:31:43.645Z,100.00
2022-08-29T02:34:11.434Z,100.00
2022-08-29T02:36:38.755Z,100.00
2022-08-29T02:39:08.181Z,100.00
2022-08-29T02:41:34.881Z,100.00
2022-08-29T02:44:01.894Z,100.00
2022-08-29T02:46:28.579Z,100.00
2022-08-29T02:49:01.331Z,100.00
2022-08-29T02:51:33.763Z,100.00
2022-08-29T02:54:01.184Z,100.00
2022-08-29T02:56:28.586Z,100.00
2022-08-29T02:58:56.416Z,100.00
2022-08-29T03:01:24.407Z,100.00
2022-08-29T03:03:51.440Z,100.00
2022-08-29T03:06:19.998Z,100.00
2022-08-29T03:08:46.926Z,100.00
2022-08-29T03:11:14.079Z,100.00
2022-08-29T03:13:44.211Z,100.00
2022-08-29T03:16:11.626Z,100.00
2022-08-29T03:18:38.317Z,100.00
2022-08-29T03:21:04.952Z,100.00
2022-08-29T03:23:32.698Z,100.00
2022-08-29T03:25:59.516Z,100.00
2022-08-29T03:28:26.106Z,100.00
2022-08-29T03:30:52.753Z,100.00
2022-08-29T03:33:19.451Z,100.00
2022-08-29T03:35:46.041Z,100.00
2022-08-29T03:38:12.753Z,100.00
2022-08-29T03:40:41.292Z,100.00
2022-08-29T03:43:09.726Z,100.00
2022-08-29T03:45:36.531Z,100.00
2022-08-29T03:48:03.771Z,100.00
2022-08-29T03:50:30.464Z,100.00
2022-08-29T03:52:57.427Z,100.00
2022-08-29T03:55:24.086Z,100.00
2022-08-29T03:57:51.053Z,100.00
2022-08-29T04:00:19.248Z,100.00
2022-08-29T04:02:47.802Z,100.00
2022-08-29T04:05:16.811Z,100.00
2022-08-29T04:07:45.746Z,100.00
2022-08-29T04:10:16.885Z,100.00
2022-08-29T04:12:43.855Z,100.00
2022-08-29T04:15:11.415Z,100.00
2022-08-29T04:17:45.572Z,100.00
2022-08-29T04:20:24.778Z,100.00
2022-08-29T04:22:53.198Z,100.00
2022-08-29T04:25:19.913Z,100.00
2022-08-29T04:27:46.562Z,100.00
2022-08-29T04:30:16.694Z,100.00
2022-08-29T04:32:43.454Z,100.00
2022-08-29T04:35:12.724Z,100.00
2022-08-29T04:37:40.970Z,100.00
2022-08-29T04:40:15.446Z,100.00
2022-08-29T04:42:47.202Z,100.00
2022-08-29T04:45:15.049Z,100.00
2022-08-29T04:47:42.979Z,100.00
2022-08-29T04:50:14.523Z,100.00
2022-08-29T04:52:42.729Z,100.00
2022-08-29T04:55:10.314Z,100.00
2022-08-29T04:57:38.326Z,100.00
2022-08-29T05:00:08.737Z,100.00
2022-08-29T05:02:35.441Z,100.00
2022-08-29T05:05:02.525Z,100.00
2022-08-29T05:07:29.189Z,100.00
2022-08-29T05:09:59.036Z,100.00
2022-08-29T05:12:26.657Z,100.00
2022-08-29T05:14:53.731Z,100.00
2022-08-29T05:17:20.850Z,100.00
2022-08-29T05:19:48.006Z,100.00
2022-08-29T05:22:15.484Z,100.00
2022-08-29T05:24:42.804Z,100.00
2022-08-29T05:27:15.116Z,100.00
2022-08-29T05:29:43.307Z,100.00
2022-08-29T05:32:11.714Z,100.00
2022-08-29T05:34:39.376Z,100.00
2022-08-29T05:37:09.021Z,96.51
2022-08-29T05:39:37.301Z,98.03
2022-08-29T05:42:05.023Z,94.40
2022-08-29T05:44:35.143Z,92.59
2022-08-29T05:47:07.163Z,85.17
2022-08-29T05:49:35.336Z,82.39
2022-08-29T05:52:01.933Z,80.31
2022-08-29T05:54:29.976Z,79.65
2022-08-29T05:56:57.183Z,79.14
2022-08-29T05:59:23.738Z,74.63
2022-08-29T06:01:50.340Z,71.01
2022-08-29T06:04:17.117Z,67.69
2022-08-29T06:06:43.789Z,66.27
2022-08-29T06:09:11.761Z,65.84
2022-08-29T06:11:38.732Z,66.21
2022-08-29T06:14:06.117Z,61.25
2022-08-29T06:16:33.408Z,62.83
2022-08-29T06:19:00.050Z,62.77
2022-08-29T06:21:26.726Z,62.78
2022-08-29T06:23:53.339Z,58.68
2022-08-29T06:26:20.159Z,58.48
2022-08-29T06:28:47.175Z,58.86
2022-08-29T06:31:22.973Z,57.45
2022-08-29T06:33:54.639Z,56.90
2022-08-29T06:36:21.549Z,56.99
2022-08-29T06:38:48.321Z,55.13
2022-08-29T06:41:17.341Z,55.22
2022-08-29T06:43:44.446Z,54.96
2022-08-29T06:46:26.263Z,54.87
2022-08-29T06:48:53.980Z,53.11
2022-08-29T06:51:21.180Z,53.06
2022-08-29T06:53:47.820Z,52.46
2022-08-29T06:56:15.062Z,50.58
2022-08-29T06:58:42.572Z,51.41
2022-08-29T07:01:12.376Z,52.68
2022-08-29T07:03:41.115Z,50.29
2022-08-29T07:06:08.838Z,51.44
2022-08-29T07:08:39.772Z,49.06
2022-08-29T07:11:09.295Z,51.48
2022-08-29T07:13:35.877Z,50.79
2022-08-29T07:16:03.270Z,50.18
2022-08-29T07:18:29.862Z,48.88
2022-08-29T07:20:56.417Z,50.50
2022-08-29T07:23:23.029Z,49.21
2022-08-29T07:25:49.608Z,47.35
2022-08-29T07:28:16.361Z,48.82
2022-08-29T07:30:43.239Z,47.80
2022-08-29T07:33:09.863Z,48.18
2022-08-29T07:35:36.453Z,47.73
2022-08-29T07:38:03.241Z,49.83
2022-08-29T07:40:30.427Z,48.41
2022-08-29T07:42:57.117Z,46.96
2022-08-29T07:45:23.724Z,48.65
2022-08-29T07:47:50.396Z,47.31
2022-08-29T07:50:17.185Z,46.37
2022-08-29T07:52:43.936Z,46.52
2022-08-29T07:55:11.206Z,47.58
2022-08-29T07:57:39.835Z,47.12
2022-08-29T08:00:12.014Z,47.10
2022-08-29T08:02:38.795Z,48.17
2022-08-29T08:05:07.203Z,46.79
2022-08-29T08:07:35.294Z,46.75
2022-08-29T08:10:02.964Z,47.37
2022-08-29T08:12:29.669Z,47.85
2022-08-29T08:14:57.267Z,46.62
2022-08-29T08:17:24.321Z,48.31
2022-08-29T08:19:50.933Z,47.39
2022-08-29T08:22:17.533Z,46.62
2022-08-29T08:24:45.052Z,46.10
2022-08-29T08:27:11.957Z,45.09
2022-08-29T08:29:38.634Z,45.82
2022-08-29T08:32:05.448Z,45.57
2022-08-29T08:34:35.820Z,46.14
2022-08-29T08:37:07.481Z,44.15
2022-08-29T08:39:34.732Z,44.04
2022-08-29T08:42:14.377Z,45.09
2022-08-29T08:44:40.948Z,46.17
2022-08-29T08:47:12.510Z,46.59
2022-08-29T08:49:52.394Z,43.79
2022-08-29T08:52:33.442Z,44.15
2022-08-29T08:55:04.966Z,43.82
2022-08-29T08:57:41.532Z,43.88
2022-08-29T09:00:11.704Z,44.14
2022-08-29T09:03:30.294Z,46.66
2022-08-29T09:06:14.237Z,43.36
2022-08-29T09:08:56.532Z,42.74
2022-08-29T09:11:28.179Z,43.70
2022-08-29T09:14:14.592Z,45.60
2022-08-29T09:16:49.424Z,44.08
2022-08-29T09:19:17.615Z,42.52
2022-08-29T09:21:48.793Z,43.93
2022-08-29T09:24:36.139Z,42.32
2022-08-29T09:27:02.959Z,44.50
2022-08-29T09:29:30.899Z,41.82
2022-08-29T09:32:12.510Z,41.21
2022-08-29T09:37:35.286Z,43.31
2022-08-29T09:40:11.168Z,41.12
2022-08-29T09:42:41.523Z,41.46
2022-08-29T09:45:18.695Z,40.91
2022-08-29T09:47:45.692Z,41.15
2022-08-29T09:50:25.637Z,41.09
2022-08-29T09:52:54.697Z,42.19
2022-08-29T09:55:29.985Z,40.57
2022-08-29T09:58:01.447Z,40.11
2022-08-29T10:00:35.184Z,41.33
2022-08-29T10:03:06.268Z,42.21
2022-08-29T10:05:46.016Z,43.18
2022-08-29T10:08:37.045Z,44.79
2022-08-29T10:11:25.520Z,44.29
2022-08-29T10:14:06.465Z,44.32
2022-08-29T10:16:51.168Z,46.51
2022-08-29T10:19:34.159Z,43.84
2022-08-29T10:22:28.510Z,45.84
2022-08-29T10:25:25.578Z,48.13
2022-08-29T10:28:07.263Z,46.63
2022-08-29T10:30:41.100Z,46.57
2022-08-29T10:33:32.681Z,42.40
2022-08-29T10:36:25.346Z,41.11
2022-08-29T10:39:02.982Z,41.17
2022-08-29T10:41:56.789Z,39.38
2022-08-29T10:44:29.687Z,41.46
2022-08-29T10:47:12.156Z,37.62
2022-08-29T10:50:10.123Z,37.79
2022-08-29T10:52:57.858Z,37.90
2022-08-29T10:55:42.425Z,38.66
2022-08-29T10:58:13.469Z,38.07
2022-08-29T11:00:39.977Z,39.25
2022-08-29T11:03:12.383Z,39.05
2022-08-29T11:05:44.335Z,39.88
2022-08-29T11:08:38.531Z,39.60
2022-08-29T11:11:05.290Z,40.81
2022-08-29T11:13:39.754Z,42.21
2022-08-29T11:16:18.855Z,39.46
2022-08-29T11:18:54.895Z,43.35
2022-08-29T11:21:29.326Z,40.80
2022-08-29T11:23:58.489Z,38.56
2022-08-29T11:26:44.242Z,36.84
2022-08-29T11:29:28.863Z,37.85
2022-08-29T11:32:12.064Z,37.54
2022-08-29T11:34:55.422Z,36.81
2022-08-29T11:37:34.159Z,37.18
2022-08-29T11:40:12.273Z,35.75
2022-08-29T11:42:50.152Z,37.18
2022-08-29T11:45:27.201Z,39.71
2022-08-29T11:48:18.350Z,43.22
2022-08-29T11:50:45.594Z,39.93
2022-08-29T11:53:21.534Z,41.17
2022-08-29T11:56:14.377Z,38.60
2022-08-29T11:58:48.134Z,40.00
2022-08-29T12:01:37.053Z,38.41
2022-08-29T12:04:06.255Z,39.74
2022-08-29T12:06:37.133Z,39.58
2022-08-29T12:09:35.322Z,38.52
2022-08-29T12:12:04.626Z,39.05
2022-08-29T12:14:37.516Z,39.00
2022-08-29T12:17:08.139Z,35.97
2022-08-29T12:19:53.452Z,37.24
2022-08-29T12:22:57.795Z,37.40
2022-08-29T12:25:27.426Z,39.66
2022-08-29T12:28:02.413Z,39.34
2022-08-29T12:30:35.060Z,37.47
2022-08-29T12:33:19.227Z,39.14
2022-08-29T12:36:07.534Z,38.04
2022-08-29T12:38:44.721Z,37.82
2022-08-29T12:41:50.286Z,38.13
2022-08-29T12:44:29.362Z,39.61
2022-08-29T12:47:03.392Z,39.29
2022-08-29T12:49:35.894Z,38.81
2022-08-29T12:52:06.552Z,40.79
2022-08-29T12:54:36.965Z,40.45
2022-08-29T12:57:06.475Z,38.64
2022-08-29T12:59:35.625Z,39.44
2022-08-29T13:02:02.554Z,37.94
2022-08-29T13:04:33.874Z,39.16
2022-08-29T13:07:08.876Z,38.59
2022-08-29T13:09:40.184Z,39.58
2022-08-29T13:12:31.045Z,39.61
2022-08-29T13:15:00.590Z,38.99
2022-08-29T13:17:35.541Z,39.79
2022-08-29T13:20:42.915Z,37.65
2022-08-29T13:23:12.489Z,38.23
2022-08-29T13:25:49.891Z,38.41
2022-08-29T13:28:23.626Z,37.81
2022-08-29T13:31:11.795Z,38.17
2022-08-29T13:33:41.361Z,38.91
2022-08-29T13:36:29.756Z,38.60
2022-08-29T13:39:25.438Z,38.27
2022-08-29T13:41:57.859Z,38.98
2022-08-29T13:44:32.057Z,38.89
2022-08-29T13:47:01.401Z,39.87
2022-08-29T13:49:34.024Z,39.90
2022-08-29T13:52:01.473Z,39.49
2022-08-29T13:54:33.213Z,39.52
2022-08-29T13:57:04.453Z,38.33
2022-08-29T13:59:36.779Z,37.42
2022-08-29T14:02:09.364Z,40.97
2022-08-29T14:04:39.974Z,38.09
2022-08-29T14:07:09.704Z,41.41
2022-08-29T14:09:39.383Z,38.19
2022-08-29T14:12:06.885Z,38.52
2022-08-29T14:14:33.571Z,37.00
2022-08-29T14:17:00.776Z,38.49
2022-08-29T14:19:29.479Z,38.29
2022-08-29T14:22:00.495Z,37.01
2022-08-29T14:24:29.028Z,37.93
2022-08-29T14:27:01.383Z,38.43
2022-08-29T14:29:30.870Z,37.46
2022-08-29T14:31:58.740Z,36.96
2022-08-29T14:34:26.023Z,36.91
2022-08-29T14:36:57.566Z,37.41
2022-08-29T14:39:26.437Z,36.87
2022-08-29T14:41:54.090Z,38.56
2022-08-29T14:44:22.300Z,38.09
2022-08-29T14:46:50.240Z,39.30
2022-08-29T14:49:17.645Z,39.96
2022-08-29T14:51:44.605Z,39.25
2022-08-29T14:54:12.182Z,39.59
2022-08-29T14:56:49.069Z,40.37
2022-08-29T14:59:17.692Z,39.49
2022-08-29T15:01:44.411Z,39.62
2022-08-29T15:04:11.324Z,37.92
2022-08-29T15:06:41.090Z,38.80
2022-08-29T15:09:07.924Z,39.17
2022-08-29T15:11:34.550Z,38.13
2022-08-29T15:14:04.521Z,37.76
2022-08-29T15:16:32.057Z,37.86
2022-08-29T15:21:45.932Z,38.40
2022-08-29T15:24:12.566Z,39.02
2022-08-29T15:26:39.461Z,38.29
2022-08-29T15:29:06.115Z,39.41
2022-08-29T15:31:33.033Z,37.55
2022-08-29T15:34:00.640Z,37.86
2022-08-29T15:36:28.539Z,37.35
2022-08-29T15:38:55.231Z,37.46
2022-08-29T15:41:21.873Z,38.36
2022-08-29T15:43:48.468Z,38.11
2022-08-29T15:46:15.223Z,38.67
2022-08-29T15:48:41.909Z,38.91
2022-08-29T15:51:08.604Z,38.64
2022-08-29T15:53:35.221Z,38.32
2022-08-29T15:56:01.936Z,38.30
2022-08-29T15:58:28.522Z,40.39
2022-08-29T16:00:55.198Z,39.79
2022-08-29T16:03:22.151Z,39.30
2022-08-29T16:05:48.748Z,39.65
2022-08-29T16:08:17.474Z,38.98
2022-08-29T16:10:44.703Z,39.40
2022-08-29T16:13:11.716Z,38.76
2022-08-29T16:15:38.866Z,39.01
2022-08-29T16:18:06.782Z,39.74
2022-08-29T16:20:34.808Z,38.71
2022-08-29T16:23:02.282Z,40.51
2022-08-29T16:25:31.245Z,40.03
2022-08-29T16:28:00.262Z,40.84
2022-08-29T16:30:27.414Z,40.55
2022-08-29T16:32:55.291Z,41.03
2022-08-29T16:35:22.345Z,42.19
2022-08-29T16:38:02.726Z,41.97
2022-08-29T16:40:31.527Z,42.24
2022-08-29T16:42:58.250Z,41.97
2022-08-29T16:45:24.984Z,42.28
2022-08-29T16:47:56.743Z,42.64
2022-08-29T16:50:25.035Z,42.05
2022-08-29T16:52:51.862Z,43.52
2022-08-29T16:55:18.810Z,44.35
2022-08-29T16:58:05.361Z,45.26
2022-08-29T17:00:32.138Z,45.35
2022-08-29T17:02:58.891Z,44.85
2022-08-29T17:05:25.954Z,45.51
2022-08-29T17:07:52.519Z,46.58
2022-08-29T17:10:19.169Z,46.76
2022-08-29T17:12:45.692Z,46.59
2022-08-29T17:15:12.606Z,46.91
2022-08-29T17:17:39.215Z,46.30
2022-08-29T17:20:06.750Z,46.34
2022-08-29T17:22:34.329Z,46.94
2022-08-29T17:25:02.009Z,46.84
2022-08-29T17:27:31.043Z,47.01
2022-08-29T17:29:57.605Z,48.29
2022-08-29T17:32:24.194Z,47.96
2022-08-29T17:34:50.913Z,48.30
2022-08-29T17:37:17.568Z,48.58
2022-08-29T17:39:44.321Z,50.09
2022-08-29T17:42:11.594Z,49.64
2022-08-29T17:44:38.388Z,49.73
2022-08-29T17:47:05.150Z,49.79
2022-08-29T17:49:32.455Z,50.28
2022-08-29T17:51:59.130Z,50.35
2022-08-29T17:54:26.593Z,50.56
2022-08-29T17:56:58.472Z,51.08
2022-08-29T17:59:27.417Z,50.70
2022-08-29T18:01:55.385Z,51.11
2022-08-29T18:04:23.495Z,51.60
2022-08-29T18:06:51.901Z,52.16
2022-08-29T18:09:19.543Z,51.93
2022-08-29T18:11:50.045Z,52.66
2022-08-29T18:14:18.740Z,54.38
2022-08-29T18:16:45.580Z,56.66
2022-08-29T18:19:13.579Z,57.71
2022-08-29T18:21:44.171Z,58.28
2022-08-29T18:24:13.648Z,62.17
2022-08-29T18:26:44.289Z,63.45
2022-08-29T18:29:10.980Z,64.65
2022-08-29T18:31:37.633Z,62.75
2022-08-29T18:34:04.344Z,62.48
2022-08-29T18:36:32.592Z,61.77
2022-08-29T18:38:59.850Z,62.20
2022-08-29T18:41:26.882Z,63.34
2022-08-29T18:43:53.694Z,63.10
2022-08-29T18:46:20.547Z,62.52
2022-08-29T18:48:47.261Z,63.69
2022-08-29T18:51:15.139Z,64.57
2022-08-29T18:53:42.860Z,63.29
2022-08-29T18:56:10.121Z,64.95
2022-08-29T18:58:38.068Z,65.83
2022-08-29T19:01:26.926Z,66.26
2022-08-29T19:03:56.668Z,67.64
2022-08-29T19:06:26.026Z,70.43
2022-08-29T19:08:54.425Z,69.86
2022-08-29T19:11:21.121Z,72.13
2022-08-29T19:13:50.301Z,73.88
2022-08-29T19:16:20.421Z,73.21
2022-08-29T19:18:47.218Z,74.09
2022-08-29T19:21:14.051Z,75.36
2022-08-29T19:23:47.244Z,74.48
2022-08-29T19:26:31.985Z,75.77
2022-08-29T19:29:01.350Z,77.74
2022-08-29T19:31:29.325Z,77.06
2022-08-29T19:33:57.278Z,78.30
2022-08-29T19:36:24.940Z,76.88
2022-08-29T19:38:51.742Z,81.07
2022-08-29T19:41:18.611Z,81.19
2022-08-29T19:43:45.522Z,81.62
2022-08-29T19:46:16.706Z,82.86
2022-08-29T19:48:44.886Z,84.76
2022-08-29T19:51:17.898Z,86.09
2022-08-29T19:53:45.358Z,85.14
2022-08-29T19:56:12.469Z,86.72
2022-08-29T19:58:39.384Z,89.76
2022-08-29T20:01:07.997Z,90.25
2022-08-29T20:03:38.042Z,93.75
2022-08-29T20:06:06.977Z,91.86
2022-08-29T20:08:39.955Z,94.23
2022-08-29T20:11:06.868Z,92.11
2022-08-29T20:13:35.817Z,91.30
2022-08-29T20:16:12.234Z,90.96
2022-08-29T20:18:40.791Z,94.94
2022-08-29T20:21:07.736Z,93.19
2022-08-29T20:23:34.388Z,94.58
2022-08-29T20:26:01.732Z,94.79
2022-08-29T20:28:30.538Z,95.11
2022-08-29T20:30:57.680Z,98.46
2022-08-29T20:33:25.556Z,96.92
2022-08-29T20:36:11.113Z,95.98
2022-08-29T20:38:37.766Z,99.15
2022-08-29T20:41:04.574Z,100.00
2022-08-29T20:43:31.171Z,98.45
2022-08-29T20:45:59.947Z,96.63
2022-08-29T20:48:31.321Z,100.00
2022-08-29T20:51:00.442Z,98.10
2022-08-29T20:53:31.661Z,99.19
2022-08-29T20:55:59.112Z,100.00
2022-08-29T20:58:25.979Z,100.00
2022-08-29T21:00:56.390Z,100.00
2022-08-29T21:03:41.414Z,98.03
2022-08-29T21:06:08.265Z,100.00
2022-08-29T21:08:36.393Z,100.00
2022-08-29T21:11:05.301Z,100.00
2022-08-29T21:13:32.082Z,100.00
2022-08-29T21:15:58.971Z,100.00
2022-08-29T21:18:26.137Z,100.00
2022-08-29T21:20:53.817Z,100.00
2022-08-29T21:23:23.479Z,100.00
2022-08-29T21:25:56.259Z,100.00
2022-08-29T21:28:24.895Z,100.00
2022-08-29T21:30:52.099Z,100.00
2022-08-29T21:33:19.949Z,100.00
2022-08-29T21:35:46.622Z,100.00
2022-08-29T21:38:16.821Z,100.00
2022-08-29T21:40:51.146Z,100.00
2022-08-29T21:43:22.172Z,100.00
2022-08-29T21:45:48.822Z,100.00
2022-08-29T21:48:15.439Z,100.00
2022-08-29T21:50:43.266Z,100.00
2022-08-29T21:53:17.946Z,100.00
2022-08-29T21:55:44.605Z,100.00
2022-08-29T21:58:11.344Z,100.00
2022-08-29T22:00:41.940Z,100.00
2022-08-29T22:03:12.448Z,100.00
2022-08-29T22:05:43.664Z,100.00
2022-08-29T22:08:13.957Z,100.00
2022-08-29T22:10:41.982Z,100.00
2022-08-29T22:13:09.049Z,100.00
2022-08-29T22:15:54.431Z,100.00
2022-08-29T22:18:21.582Z,100.00
2022-08-29T22:20:48.750Z,100.00
2022-08-29T22:23:20.476Z,100.00
2022-08-29T22:25:47.370Z,100.00
2022-08-29T22:28:14.162Z,100.00
2022-08-29T22:30:40.754Z,100.00
2022-08-29T22:33:08.199Z,100.00
2022-08-29T22:35:35.735Z,100.00
2022-08-29T22:38:02.505Z,100.00
2022-08-29T22:40:29.482Z,100.00
2022-08-29T22:42:56.606Z,100.00
2022-08-29T22:45:23.846Z,100.00
2022-08-29T22:47:50.486Z,100.00
2022-08-29T22:50:24.007Z,100.00
2022-08-29T22:52:54.359Z,100.00
2022-08-29T22:57:48.373Z,100.00
2022-08-29T23:00:19.584Z,100.00
2022-08-29T23:02:47.116Z,100.00
2022-08-29T23:05:15.237Z,100.00
2022-08-29T23:07:41.944Z,100.00
2022-08-29T23:10:09.615Z,100.00
2022-08-29T23:12:36.809Z,100.00
2022-08-29T23:15:09.373Z,100.00
2022-08-29T23:17:35.926Z,100.00
2022-08-29T23:20:03.833Z,100.00
2022-08-29T23:22:31.647Z,100.00
2022-08-29T23:24:59.163Z,100.00
2022-08-29T23:27:29.925Z,100.00
2022-08-29T23:29:57.634Z,100.00
2022-08-29T23:32:24.658Z,100.00
2022-08-29T23:34:51.284Z,100.00
2022-08-29T23:37:18.181Z,100.00
2022-08-29T23:39:44.774Z,100.00
2022-08-29T23:42:11.345Z,100.00
2022-08-29T23:44:37.954Z,100.00
2022-08-29T23:47:04.750Z,100.00
2022-08-29T23:49:31.369Z,100.00
2022-08-29T23:51:59.208Z,100.00
2022-08-29T23:54:26.077Z,100.00
2022-08-29T23:56:53.532Z,100.00
2022-08-29T23:59:38.598Z,100.00
